Keewatin, Canada
Current Conditions -  °F | °C
As of 6:00 PM on Friday 31 Oct 2014 (Local Time) from CYQK Reporting Station
Scattered Clouds Scattered Clouds  
Wind Chill: 27°   Ceiling: Unl
Heat Index: 32°   Visibility: 15mi
Dew Point: 19°   Wind: 5mph
Humidity: 60%   Direction: 170°S
Pressure: 30.42"   Gusts: NA
Location:  49.76°N, 94.56°W
Report Text: CYQK 312300Z 17004KT 15SM SCT240 M00/M07 A3042 RMK CI3 SLP327
Loading
Personal Weather Stations






























Interactive Weather Map
Tropical Storm Tracking
New forecast layout! Learn more

10-Day Weather Forecast

Advertisements
Track Severe Weather on mobile